createdAt,value
2023-01-17T00:00:01.359Z,6.00
2023-01-17T00:02:31.797Z,6.60
2023-01-17T00:05:14.206Z,6.20
2023-01-17T00:07:56.815Z,5.40
2023-01-17T00:10:28.314Z,6.70
2023-01-17T00:13:01.386Z,6.70
2023-01-17T00:15:32.990Z,6.90
2023-01-17T00:18:03.367Z,6.90
2023-01-17T00:20:47.408Z,7.30
2023-01-17T00:23:31.393Z,5.60
2023-01-17T00:26:07.672Z,7.20
2023-01-17T00:28:39.376Z,7.20
2023-01-17T00:31:07.926Z,7.30
2023-01-17T00:33:35.475Z,6.20
2023-01-17T00:36:03.905Z,7.40
2023-01-17T00:38:32.972Z,7.40
2023-01-17T00:41:03.457Z,7.40
2023-01-17T00:43:46.336Z,7.80
2023-01-17T00:46:31.446Z,7.60
2023-01-17T00:54:39.234Z,7.40
2023-01-17T00:57:22.372Z,7.40
2023-01-17T01:00:04.910Z,7.40
2023-01-17T01:02:50.736Z,7.40
2023-01-17T01:05:33.579Z,7.40
2023-01-17T01:08:16.848Z,7.40
2023-01-17T01:10:59.924Z,7.40
2023-01-17T01:13:44.096Z,7.20
2023-01-17T01:16:27.202Z,7.10
2023-01-17T01:19:12.519Z,7.00
2023-01-17T01:21:55.052Z,6.80
2023-01-17T01:24:37.525Z,4.90
2023-01-17T01:27:20.124Z,6.80
2023-01-17T01:30:02.608Z,5.20
2023-01-17T01:32:47.302Z,6.70
2023-01-17T01:35:19.799Z,6.80
2023-01-17T01:37:49.812Z,7.10
2023-01-17T01:40:20.941Z,7.00
2023-01-17T01:42:54.717Z,6.90
2023-01-17T01:45:27.014Z,6.80
2023-01-17T01:48:00.803Z,6.60
2023-01-17T01:50:37.332Z,6.60
2023-01-17T01:53:09.113Z,6.70
2023-01-17T01:55:42.701Z,6.70
2023-01-17T01:58:19.219Z,7.10
2023-01-17T02:00:49.388Z,7.40
2023-01-17T02:03:23.273Z,6.50
2023-01-17T02:05:56.284Z,6.60
2023-01-17T02:08:27.263Z,6.60
2023-01-17T02:10:58.982Z,6.60
2023-01-17T02:13:29.292Z,6.70
2023-01-17T02:16:05.841Z,7.00
2023-01-17T02:18:48.705Z,7.10
2023-01-17T02:21:26.443Z,6.60
2023-01-17T02:24:26.943Z,6.60
2023-01-17T02:27:04.754Z,6.30
2023-01-17T02:30:07.662Z,6.40
2023-01-17T02:33:03.647Z,5.50
2023-01-17T02:35:41.055Z,6.60
2023-01-17T02:38:19.553Z,6.70
2023-01-17T02:40:54.718Z,6.50
2023-01-17T02:43:26.950Z,6.30
2023-01-17T02:45:56.959Z,6.70
2023-01-17T02:48:32.309Z,6.60
2023-01-17T02:51:28.037Z,6.10
2023-01-17T02:54:11.258Z,6.00
2023-01-17T02:56:52.399Z,4.80
2023-01-17T02:59:40.878Z,6.10
2023-01-17T03:02:19.691Z,5.90
2023-01-17T03:04:58.035Z,6.50
2023-01-17T03:07:30.859Z,5.80
2023-01-17T03:10:03.728Z,6.00
2023-01-17T03:12:35.976Z,5.10
2023-01-17T03:15:06.646Z,4.30
2023-01-17T03:17:36.693Z,5.90
2023-01-17T03:20:10.130Z,5.50
2023-01-17T03:22:40.124Z,5.40
2023-01-17T03:25:11.086Z,5.20
2023-01-17T03:27:41.140Z,5.90
2023-01-17T03:30:12.824Z,5.80
2023-01-17T03:32:43.219Z,4.70
2023-01-17T03:35:15.962Z,6.10
2023-01-17T03:37:45.971Z,3.80
2023-01-17T03:40:16.167Z,4.70
2023-01-17T03:42:46.329Z,4.40
2023-01-17T03:45:16.909Z,5.10
2023-01-17T03:50:20.033Z,4.30
2023-01-17T03:55:20.871Z,4.40
2023-01-17T04:00:21.858Z,4.30
2023-01-17T04:02:51.919Z,4.40
2023-01-17T04:05:24.556Z,4.30
2023-01-17T04:10:24.843Z,4.60
2023-01-17T04:12:54.861Z,4.50
2023-01-17T04:15:24.929Z,5.50
2023-01-17T04:20:34.842Z,5.40
2023-01-17T04:23:04.968Z,4.80
2023-01-17T04:25:36.580Z,5.20
2023-01-17T04:28:06.428Z,4.80
2023-01-17T04:33:07.549Z,5.30
2023-01-17T04:40:40.860Z,5.20
2023-01-17T04:43:10.976Z,3.50
2023-01-17T04:48:12.840Z,4.70
2023-01-17T04:50:45.536Z,5.40
2023-01-17T04:55:49.366Z,4.80
2023-01-17T04:58:19.377Z,4.90
2023-01-17T05:00:51.271Z,5.30
2023-01-17T05:05:54.482Z,4.80
2023-01-17T05:08:24.525Z,4.80
2023-01-17T05:10:54.628Z,4.50
2023-01-17T05:13:24.654Z,5.00
2023-01-17T05:15:54.803Z,4.50
2023-01-17T05:20:57.788Z,5.20
2023-01-17T05:23:27.795Z,4.80
2023-01-17T05:25:57.827Z,5.60
2023-01-17T05:36:01.374Z,4.40
2023-01-17T05:38:31.391Z,4.40
2023-01-17T05:41:03.058Z,2.80
2023-01-17T05:43:32.817Z,4.00
2023-01-17T05:48:33.163Z,3.90
2023-01-17T05:51:05.905Z,3.90
2023-01-17T05:53:36.868Z,4.20
2023-01-17T05:56:07.266Z,2.80
2023-01-17T06:01:07.585Z,3.00
2023-01-17T06:03:38.379Z,2.80
2023-01-17T06:06:11.155Z,3.60
2023-01-17T06:08:41.270Z,3.50
2023-01-17T06:11:11.370Z,3.70
2023-01-17T06:16:12.123Z,4.10
2023-01-17T06:18:42.188Z,3.70
2023-01-17T06:21:14.884Z,4.10
2023-01-17T06:23:44.876Z,4.80
2023-01-17T06:26:15.289Z,4.40
2023-01-17T06:28:45.301Z,3.20
2023-01-17T06:31:15.497Z,5.10
2023-01-17T06:36:18.380Z,4.60
2023-01-17T06:38:52.367Z,4.70
2023-01-17T06:41:23.369Z,4.90
2023-01-17T06:43:55.229Z,3.30
2023-01-17T06:46:26.190Z,3.90
2023-01-17T06:51:29.156Z,4.50
2023-01-17T06:53:59.347Z,4.50
2023-01-17T07:04:00.382Z,4.10
2023-01-17T07:06:33.114Z,4.30
2023-01-17T07:09:04.232Z,4.20
2023-01-17T07:11:34.601Z,3.20
2023-01-17T07:16:34.932Z,4.40
2023-01-17T07:21:37.856Z,4.10
2023-01-17T07:24:09.126Z,4.60
2023-01-17T07:26:40.373Z,4.10
2023-01-17T07:34:11.285Z,5.00
2023-01-17T07:36:43.956Z,4.60
2023-01-17T07:39:14.124Z,5.10
2023-01-17T07:41:44.342Z,3.30
2023-01-17T07:44:14.733Z,4.50
2023-01-17T07:46:44.907Z,5.10
2023-01-17T07:51:49.743Z,4.60
2023-01-17T07:56:50.047Z,4.90
2023-01-17T07:59:20.555Z,5.10
2023-01-17T08:01:50.755Z,4.60
2023-01-17T08:06:55.127Z,5.20
2023-01-17T08:11:55.547Z,4.60
2023-01-17T08:14:25.724Z,5.60
2023-01-17T08:16:56.281Z,5.90
2023-01-17T08:19:26.389Z,7.10
2023-01-17T08:21:59.508Z,7.90
2023-01-17T08:24:29.624Z,7.80
2023-01-17T08:26:59.880Z,8.90
2023-01-17T08:29:30.082Z,9.10
2023-01-17T08:32:03.415Z,9.40
2023-01-17T08:34:36.217Z,9.50
2023-01-17T08:37:09.173Z,9.50
2023-01-17T08:39:39.468Z,9.50
2023-01-17T08:42:09.710Z,9.10
2023-01-17T08:44:40.183Z,9.10
2023-01-17T08:47:11.821Z,9.80
2023-01-17T08:49:41.889Z,9.80
2023-01-17T08:52:15.667Z,10.30
2023-01-17T08:54:45.744Z,10.10
2023-01-17T08:57:15.849Z,11.80
2023-01-17T08:59:45.956Z,11.90
2023-01-17T09:02:17.793Z,12.30
2023-01-17T09:04:48.063Z,12.90
2023-01-17T09:07:23.016Z,13.10
2023-01-17T09:09:53.057Z,13.70
2023-01-17T09:12:23.876Z,13.60
2023-01-17T09:14:53.917Z,13.20
2023-01-17T09:17:23.968Z,13.30
2023-01-17T09:19:54.726Z,13.60
2023-01-17T09:22:27.355Z,13.70
2023-01-17T09:24:57.634Z,14.00
2023-01-17T09:27:28.148Z,14.50
2023-01-17T09:29:58.134Z,15.00
2023-01-17T09:32:28.187Z,15.10
2023-01-17T09:35:00.871Z,15.50
2023-01-17T09:37:33.735Z,15.30
2023-01-17T09:40:03.844Z,14.50
2023-01-17T09:42:38.864Z,12.80
2023-01-17T09:45:19.221Z,12.60
2023-01-17T09:47:51.406Z,11.70
2023-01-17T09:50:32.607Z,10.90
2023-01-17T09:53:07.442Z,10.90
2023-01-17T09:55:42.874Z,10.90
2023-01-17T09:58:15.921Z,10.80
2023-01-17T10:00:59.852Z,10.30
2023-01-17T10:03:41.865Z,9.20
2023-01-17T10:06:33.709Z,8.50
2023-01-17T10:09:26.172Z,9.00
2023-01-17T10:12:14.357Z,9.10
2023-01-17T10:15:12.336Z,9.70
2023-01-17T10:17:51.990Z,9.70
2023-01-17T10:20:45.826Z,9.90
2023-01-17T10:23:51.843Z,8.30
2023-01-17T10:26:27.266Z,8.50
2023-01-17T10:29:03.105Z,8.20
2023-01-17T10:31:38.668Z,8.30
2023-01-17T10:34:16.089Z,8.20
2023-01-17T10:36:49.645Z,8.30
2023-01-17T10:39:24.033Z,8.50
2023-01-17T10:42:00.854Z,8.50
2023-01-17T10:44:37.960Z,7.80
2023-01-17T10:47:17.679Z,8.30
2023-01-17T10:49:52.107Z,7.30
2023-01-17T10:52:33.878Z,7.90
2023-01-17T10:55:23.878Z,8.00
2023-01-17T10:57:58.044Z,7.90
2023-01-17T11:00:46.516Z,8.40
2023-01-17T11:03:19.695Z,9.70
2023-01-17T11:06:22.640Z,8.80
2023-01-17T11:08:55.171Z,9.00
2023-01-17T11:11:30.269Z,8.60
2023-01-17T11:14:02.594Z,8.40
2023-01-17T11:16:34.126Z,8.50
2023-01-17T11:19:20.316Z,8.20
2023-01-17T11:22:01.743Z,8.00
2023-01-17T11:24:37.793Z,7.70
2023-01-17T11:27:09.584Z,8.10
2023-01-17T11:29:41.027Z,7.10
2023-01-17T11:32:27.679Z,7.70
2023-01-17T11:35:20.138Z,8.00
2023-01-17T11:38:02.402Z,8.30
2023-01-17T11:40:34.424Z,8.50
2023-01-17T11:43:21.572Z,8.40
2023-01-17T11:46:08.599Z,8.40
2023-01-17T11:48:40.677Z,8.70
2023-01-17T11:51:27.777Z,8.80
2023-01-17T11:54:11.418Z,8.80
2023-01-17T11:56:44.326Z,8.60
2023-01-17T11:59:31.635Z,8.80
2023-01-17T12:02:24.163Z,8.90
2023-01-17T12:05:02.717Z,8.90
2023-01-17T12:07:38.105Z,9.00
2023-01-17T12:10:17.630Z,8.90
2023-01-17T12:13:11.508Z,8.50
2023-01-17T12:15:54.925Z,8.60
2023-01-17T12:18:43.225Z,8.60
2023-01-17T12:21:20.764Z,8.30
2023-01-17T12:24:09.522Z,8.40
2023-01-17T12:26:49.995Z,8.40
2023-01-17T12:29:42.392Z,8.50
2023-01-17T12:32:43.234Z,8.40
2023-01-17T12:35:18.112Z,8.20
2023-01-17T12:38:04.223Z,7.40
2023-01-17T12:40:39.774Z,8.30
2023-01-17T12:43:18.371Z,8.90
2023-01-17T12:45:50.404Z,7.50
2023-01-17T12:48:22.335Z,8.30
2023-01-17T12:50:57.402Z,7.80
2023-01-17T12:53:34.557Z,8.50
2023-01-17T12:56:11.940Z,8.10
2023-01-17T12:58:47.976Z,8.00
2023-01-17T13:01:26.572Z,8.40
2023-01-17T13:04:06.185Z,8.50
2023-01-17T13:06:50.983Z,8.40
2023-01-17T13:09:24.823Z,8.40
2023-01-17T13:11:59.002Z,8.70
2023-01-17T13:14:32.895Z,8.50
2023-01-17T13:17:07.219Z,8.60
2023-01-17T13:19:45.715Z,8.70
2023-01-17T13:22:21.805Z,8.50
2023-01-17T13:25:01.747Z,7.50
2023-01-17T13:27:48.257Z,8.30
2023-01-17T13:30:46.996Z,8.10
2023-01-17T13:33:39.167Z,8.80
2023-01-17T13:36:30.005Z,8.60
2023-01-17T13:39:19.909Z,8.60
2023-01-17T13:41:55.913Z,8.80
2023-01-17T13:44:32.063Z,8.80
2023-01-17T13:47:08.259Z,8.90
2023-01-17T13:49:48.564Z,8.90
2023-01-17T13:52:38.371Z,9.00
2023-01-17T13:55:09.651Z,9.00
2023-01-17T13:57:43.966Z,9.90
2023-01-17T14:00:44.109Z,8.90
2023-01-17T14:03:17.094Z,8.90
2023-01-17T14:05:50.961Z,8.90
2023-01-17T14:08:23.192Z,9.00
2023-01-17T14:10:55.095Z,8.80
2023-01-17T14:13:36.624Z,8.90
2023-01-17T14:16:29.069Z,9.00
2023-01-17T14:19:02.041Z,9.10
2023-01-17T14:21:35.667Z,9.00
2023-01-17T14:24:08.399Z,9.00
2023-01-17T14:26:48.245Z,8.80
2023-01-17T14:29:52.392Z,8.40
2023-01-17T14:32:24.961Z,8.80
2023-01-17T14:34:58.101Z,8.80
2023-01-17T14:37:36.406Z,8.80
2023-01-17T14:40:22.115Z,8.80
2023-01-17T14:43:03.327Z,9.70
2023-01-17T14:45:35.480Z,8.50
2023-01-17T14:48:07.897Z,8.70
2023-01-17T14:50:46.174Z,8.70
2023-01-17T14:53:26.104Z,8.70
2023-01-17T14:55:59.352Z,8.70
2023-01-17T14:58:31.651Z,8.60
2023-01-17T15:01:04.473Z,8.60
2023-01-17T15:03:38.584Z,8.60
2023-01-17T15:06:15.137Z,8.60
2023-01-17T15:08:45.441Z,8.50
2023-01-17T15:11:31.761Z,8.40
2023-01-17T15:14:11.767Z,8.40
2023-01-17T15:16:42.044Z,8.40
2023-01-17T15:19:17.285Z,8.30
2023-01-17T15:21:52.324Z,8.30
2023-01-17T15:24:24.652Z,8.20
2023-01-17T15:26:55.451Z,8.60
2023-01-17T15:29:28.511Z,7.90
2023-01-17T15:32:01.066Z,8.10
2023-01-17T15:34:33.098Z,8.00
2023-01-17T15:37:08.196Z,8.00
2023-01-17T15:39:41.185Z,9.50
2023-01-17T15:42:25.887Z,8.00
2023-01-17T15:44:57.142Z,8.00
2023-01-17T15:47:32.004Z,7.60
2023-01-17T15:50:03.447Z,7.90
2023-01-17T15:52:35.951Z,7.80
2023-01-17T15:55:15.811Z,7.70
2023-01-17T15:57:49.673Z,8.90
2023-01-17T16:00:26.888Z,7.70
2023-01-17T16:02:59.087Z,8.60
2023-01-17T16:05:47.412Z,7.10
2023-01-17T16:08:41.869Z,6.10
2023-01-17T16:11:15.925Z,7.40
2023-01-17T16:16:18.918Z,7.30
2023-01-17T16:18:50.176Z,7.10
2023-01-17T16:21:26.241Z,6.60
2023-01-17T16:23:59.266Z,7.80
2023-01-17T16:31:30.028Z,6.90
2023-01-17T16:34:00.113Z,6.70
2023-01-17T16:36:30.177Z,6.90
2023-01-17T16:41:33.143Z,5.70
2023-01-17T16:44:06.381Z,5.00
2023-01-17T16:46:38.703Z,7.60
2023-01-17T16:49:08.821Z,5.50
2023-01-17T16:51:38.841Z,6.60
2023-01-17T16:54:11.499Z,6.60
2023-01-17T16:56:41.596Z,6.50
2023-01-17T17:01:42.001Z,7.50
2023-01-17T17:04:14.421Z,6.00
2023-01-17T17:06:44.519Z,6.50
2023-01-17T17:09:18.677Z,6.30
2023-01-17T17:11:48.722Z,6.60
2023-01-17T17:14:19.004Z,6.50
2023-01-17T17:16:51.831Z,5.50
2023-01-17T17:19:23.166Z,6.10
2023-01-17T17:21:53.243Z,6.10
2023-01-17T17:24:25.954Z,6.00
2023-01-17T17:26:56.087Z,5.60
2023-01-17T17:29:26.137Z,6.20
2023-01-17T17:36:57.882Z,6.20
2023-01-17T17:39:30.583Z,6.40
2023-01-17T17:44:31.140Z,5.80
2023-01-17T17:52:06.549Z,5.80
2023-01-17T17:54:39.536Z,5.80
2023-01-17T17:57:09.618Z,6.10
2023-01-17T17:59:39.709Z,6.20
2023-01-17T18:02:11.266Z,5.70
2023-01-17T18:04:41.206Z,5.70
2023-01-17T18:07:11.359Z,5.80
2023-01-17T18:09:44.088Z,4.00
2023-01-17T18:12:14.181Z,5.60
2023-01-17T18:14:44.381Z,5.50
2023-01-17T18:19:46.320Z,5.50
2023-01-17T18:22:16.427Z,5.60
2023-01-17T18:24:49.108Z,5.50
2023-01-17T18:27:19.166Z,5.60
2023-01-17T18:29:49.452Z,5.80
2023-01-17T18:37:23.255Z,5.30
2023-01-17T18:39:55.662Z,5.60
2023-01-17T18:44:57.661Z,5.60
2023-01-17T18:47:27.760Z,5.90
2023-01-17T18:55:01.146Z,5.00
2023-01-17T18:57:31.173Z,4.20
2023-01-17T19:00:02.417Z,5.30
2023-01-17T19:02:32.435Z,5.70
2023-01-17T19:05:05.701Z,5.40
2023-01-17T19:07:36.078Z,5.20
2023-01-17T19:10:09.899Z,5.40
2023-01-17T19:12:39.945Z,5.70
2023-01-17T19:15:11.554Z,5.30
2023-01-17T19:17:41.597Z,5.50
2023-01-17T19:20:13.646Z,5.30
2023-01-17T19:22:43.694Z,4.90
2023-01-17T19:25:16.728Z,5.20
2023-01-17T19:27:46.811Z,5.50
2023-01-17T19:30:17.339Z,5.20
2023-01-17T19:35:17.857Z,5.30
2023-01-17T19:37:49.055Z,6.40
2023-01-17T19:40:23.145Z,5.40
2023-01-17T19:42:53.156Z,5.20
2023-01-17T19:45:23.301Z,5.60
2023-01-17T19:50:24.044Z,5.20
2023-01-17T19:52:54.161Z,5.00
2023-01-17T19:55:26.876Z,5.00
2023-01-17T20:00:30.422Z,5.20
2023-01-17T20:03:00.660Z,5.20
2023-01-17T20:05:32.442Z,5.80
2023-01-17T20:08:02.435Z,5.20
2023-01-17T20:10:35.225Z,5.40
2023-01-17T20:13:05.306Z,5.20
2023-01-17T20:15:36.927Z,5.20
2023-01-17T20:20:46.107Z,5.10
2023-01-17T20:23:26.213Z,5.10
2023-01-17T20:26:00.653Z,4.50
2023-01-17T20:28:31.922Z,4.40
2023-01-17T20:31:07.970Z,5.00
2023-01-17T20:33:38.232Z,5.10
2023-01-17T20:36:11.415Z,5.50
2023-01-17T20:38:48.810Z,5.30
2023-01-17T20:41:23.195Z,4.90
2023-01-17T20:43:55.234Z,5.00
2023-01-17T20:46:27.488Z,3.40
2023-01-17T20:49:00.608Z,4.30
2023-01-17T20:51:34.528Z,4.90
2023-01-17T20:54:05.488Z,4.90
2023-01-17T20:56:38.589Z,4.40
2023-01-17T20:59:09.700Z,5.50
2023-01-17T21:01:40.352Z,4.80
2023-01-17T21:04:13.099Z,4.40
2023-01-17T21:06:44.897Z,5.20
2023-01-17T21:09:17.348Z,4.80
2023-01-17T21:11:50.730Z,5.60
2023-01-17T21:19:23.939Z,4.30
2023-01-17T21:21:54.032Z,4.90
2023-01-17T21:24:24.272Z,4.80
2023-01-17T21:26:57.343Z,5.20
2023-01-17T21:31:59.495Z,4.90
2023-01-17T21:34:32.166Z,4.50
2023-01-17T21:37:02.444Z,4.50
2023-01-17T21:39:32.689Z,5.10
2023-01-17T21:42:05.319Z,4.80
2023-01-17T21:44:36.392Z,4.80
2023-01-17T21:47:06.938Z,4.70
2023-01-17T21:49:36.931Z,5.10
2023-01-17T21:52:19.810Z,4.90
2023-01-17T21:55:02.237Z,4.00
2023-01-17T21:57:47.286Z,4.70
2023-01-17T22:00:20.459Z,4.70
2023-01-17T22:02:51.064Z,4.70
2023-01-17T22:05:21.357Z,3.50
2023-01-17T22:08:03.823Z,3.10
2023-01-17T22:13:19.439Z,4.70
2023-01-17T22:16:00.092Z,4.80
2023-01-17T22:18:30.765Z,5.60
2023-01-17T22:21:00.968Z,4.80
2023-01-17T22:26:05.176Z,4.80
2023-01-17T22:28:37.902Z,4.70
2023-01-17T22:31:13.675Z,4.70
2023-01-17T22:33:45.561Z,4.80
2023-01-17T22:36:16.938Z,5.20
2023-01-17T22:41:20.180Z,3.00
2023-01-17T22:43:55.598Z,5.10
2023-01-17T22:46:28.720Z,4.60
2023-01-17T22:48:59.737Z,4.70
2023-01-17T22:51:31.202Z,4.40
2023-01-17T22:54:03.035Z,4.40
2023-01-17T22:56:35.037Z,4.40
2023-01-17T22:59:11.491Z,3.80
2023-01-17T23:01:43.303Z,4.40
2023-01-17T23:04:17.350Z,4.40
2023-01-17T23:09:18.661Z,4.40
2023-01-17T23:11:52.090Z,4.40
2023-01-17T23:14:26.942Z,4.30
2023-01-17T23:17:10.826Z,3.90
2023-01-17T23:19:42.712Z,4.20
2023-01-17T23:22:21.705Z,4.70
2023-01-17T23:24:54.003Z,4.60
2023-01-17T23:30:13.909Z,4.20
2023-01-17T23:35:17.704Z,4.20
2023-01-17T23:38:00.328Z,4.10
2023-01-17T23:40:30.783Z,4.00
2023-01-17T23:43:13.258Z,4.20
2023-01-17T23:45:46.146Z,4.00
2023-01-17T23:48:16.763Z,4.10
2023-01-17T23:50:48.369Z,4.10
2023-01-17T23:53:22.560Z,4.10
2023-01-17T23:55:54.602Z,4.00
2023-01-17T23:58:26.229Z,4.10
